Latest Coastal Weather Observations for Jervis Bay Airfield

IDN60701

Issued at 4:02 am EST Tuesday 4 August 2020 (issued every 10 minutes, with the page automatically refreshed every 10 minutes)

About coastal observations | Map of coastal stations | Coastal observations for NSW | Marine services | Other Formats
Station Details ID: 068264 Name: JERVIS BAY AIRFIELD AWS Lat: -35.14 Lon: 150.70 Height: 57.18 m
Data from the previous 72 hours. | See also: Recent months at Jervis Bay Airfield
Date/Time
EST
Wind Sea
Height
m
Swell Vis
km
Cloud Weather Temp
°C
Press
hPa
Rain since
9am
mm
Dir  Spd
kts
Gust
kts
Height
m
Period
s
Dir
04/04:00am NNW 7 9 - - - - 10 Clear - 10.5 1010.7 0.0
04/03:30am NNW 7 10 - - - - 10 - - 11.1 1010.7 0.0
04/03:00am NNW 8 11 - - - - 10 Partly cloudy - 11.9 1010.9 0.0
04/02:30am NNE 7 8 - - - - 10 - - 11.7 1011.2 0.0
04/02:00am NNE 4 5 - - - - 10 - - 11.1 1011.3 0.0
04/01:30am NE 7 8 - - - - 10 - - 11.2 1011.7 0.0
04/01:00am N 4 6 - - - - 10 - - 10.8 1012.1 0.0
04/12:30am SSE 2 4 - - - - 10 - - 10.6 1012.5 0.0
04/12:00am N 5 7 - - - - 10 Cloudy - 11.3 1012.7 0.0
 
Date/Time
EST
Wind Sea
Height
m
Swell Vis
km
Cloud Weather Temp
°C
Press
hPa
Rain since
9am
mm
Dir  Spd
kts
Gust
kts
Height
m
Period
s
Dir
03/11:30pm CALM 0 0 - - - - 10 - - 11.3 1012.8 0.0
03/11:00pm CALM 0 3 - - - - 10 - - 11.6 1012.8 0.0
03/10:30pm W 4 6 - - - - 10 - - 11.4 1013.0 0.0
03/10:00pm NNW 2 5 - - - - 10 - - 12.7 1013.3 0.0
03/09:30pm N 2 5 - - - - 10 - - 13.4 1013.3 0.0
03/09:00pm ENE 4 7 - - - - 10 Cloudy - 12.9 1013.4 0.0
03/08:30pm W 4 5 - - - - 10 - - 14.7 1013.4 0.0
03/08:00pm WNW 6 9 - - - - 10 - - 14.8 1013.5 0.0
03/07:30pm WNW 4 6 - - - - 10 - - 13.9 1013.7 0.0
03/07:00pm NW 6 9 - - - - 10 - - 14.3 1013.6 0.0
03/06:30pm NW 6 8 - - - - 10 - - 15.0 1013.6 0.0
03/06:00pm NW 6 9 - - - - 10 - - 15.2 1013.5 0.0
03/05:30pm NNW 6 7 - - - - 10 - - 15.3 1013.4 0.0
03/05:00pm NW 5 7 - - - - 10 - - 16.6 1013.3 0.0
03/04:30pm WNW 6 9 - - - - 10 - - 17.8 1013.2 0.0
03/04:00pm W 7 11 - - - - 10 - - 18.5 1013.3 0.0
03/03:30pm WNW 8 11 - - - - 10 - - 19.5 1013.1 0.0
03/03:00pm NW 6 10 - - - - 10 Mostly clear - 20.1 1013.1 0.0
03/02:30pm WNW 8 12 - - - - 10 - - 20.0 1013.3 0.0
03/02:00pm WNW 8 12 - - - - 10 - - 20.8 1013.5 0.0
03/01:30pm NW 9 13 - - - - 10 - - 20.2 1013.7 0.0
03/01:00pm NW 8 11 - - - - 10 - - 20.3 1014.2 0.0
03/12:30pm NW 7 13 - - - - 10 - - 20.2 1014.6 0.0
03/12:00pm NNE 6 7 - - - - 10 - - 18.8 1015.3 0.0
03/11:30am NE 6 8 - - - - 10 - - 18.3 1015.9 0.0
03/11:00am ENE 6 8 - - - - 10 - - 17.2 1016.7 0.0
03/10:30am NE 5 6 - - - - 10 - - 15.3 1017.0 0.0
03/10:00am NNE 4 6 - - - - 10 - - 14.3 1017.4 0.0
03/09:30am NNE 5 6 - - - - 10 - - 13.3 1017.7 0.0
03/09:00am N 3 5 - - - - 10 Partly cloudy - 12.4 1018.1 0.0
03/08:30am N 5 6 - - - - 10 - - 10.6 1018.1 0.0
03/08:00am NNE 5 7 - - - - 10 - - 9.4 1018.2 0.0
03/07:30am N 4 6 - - - - 10 - - 8.1 1018.4 0.0
03/07:00am NNE 4 5 - - - - 10 - - 6.0 1018.2 0.0
03/06:30am N 3 5 - - - - 10 - - 5.8 1018.2 0.0
03/06:00am NW 3 6 - - - - 10 - - 5.8 1018.2 0.0
03/05:30am N 3 6 - - - - 10 - - 6.2 1018.2 0.0
03/05:00am N 1 5 - - - - 10 - - 5.1 1018.1 0.0
03/04:30am CALM 0 2 - - - - 10 - - 5.6 1018.3 0.0
03/04:00am NNE 3 5 - - - - 10 - - 5.6 1018.3 0.0
03/03:30am NE 3 5 - - - - 10 - - 6.6 1018.7 0.0
03/03:00am N 4 6 - - - - 10 - - 7.3 1019.1 0.0
03/02:30am N 5 7 - - - - 10 - - 7.4 1019.4 0.0
03/02:00am NNW 3 6 - - - - 10 - - 7.0 1019.7 0.0
03/01:30am N 4 6 - - - - 10 - - 7.6 1020.2 0.0
03/01:00am N 4 6 - - - - 10 - - 8.1 1020.6 0.0
03/12:30am NW 3 6 - - - - 10 - - 7.7 1020.8 0.0
03/12:00am NNW 4 6 - - - - 10 - - 8.0 1021.1 0.0
 
Date/Time
EST
Wind Sea
Height
m
Swell Vis
km
Cloud Weather Temp
°C
Press
hPa
Rain since
9am
mm
Dir  Spd
kts
Gust
kts
Height
m
Period
s
Dir
02/11:30pm N 7 9 - - - - 10 - - 9.3 1021.5 0.0
02/11:00pm N 5 7 - - - - 10 - - 8.6 1021.9 0.0
02/10:30pm N 6 7 - - - - 10 - - 7.9 1022.1 0.0
02/10:00pm NW 1 4 - - - - 10 - - 8.4 1022.3 0.0
02/09:30pm WNW 1 4 - - - - 10 - - 7.6 1022.4 0.0
02/09:00pm CALM 0 3 - - - - 10 - - 8.1 1022.6 0.0
02/08:30pm NW 4 4 - - - - 10 - - 8.2 1022.7 0.0
02/08:00pm CALM 0 0 - - - - 10 - - 9.0 1022.8 0.0
02/07:30pm NNW 5 5 - - - - 10 - - 9.1 1022.7 0.0
02/07:00pm CALM 0 0 - - - - 10 - - 9.0 1022.8 0.0
02/06:30pm CALM 0 0 - - - - 10 - - 9.5 1022.6 0.0
02/06:00pm CALM 0 0 - - - - 10 - - 10.4 1022.5 0.0
02/05:30pm CALM 0 0 - - - - 10 - - 11.9 1022.5 0.0
02/05:00pm ESE 3 4 - - - - 10 - - 13.7 1022.4 0.0
02/04:30pm ESE 5 6 - - - - 10 - - 14.4 1022.3 0.0
02/04:00pm SE 2 6 - - - - 10 - - 15.9 1022.4 0.0
02/03:30pm SSE 3 5 - - - - 10 - - 16.0 1022.3 0.0
02/03:00pm SSE 5 7 - - - - 10 - - 15.9 1022.4 0.0
02/02:30pm SSW 6 7 - - - - 10 - - 16.0 1022.4 0.0
02/02:00pm S 6 7 - - - - 10 - - 15.8 1022.6 0.0
02/01:30pm SSW 6 9 - - - - 10 - - 15.9 1022.7 0.0
02/01:00pm SSW 6 7 - - - - 10 - - 15.4 1023.1 0.0
02/12:30pm S 6 8 - - - - 10 - - 15.8 1023.5 0.0
02/12:00pm SSW 6 8 - - - - 10 - - 15.6 1023.9 0.0
02/11:30am SSW 5 7 - - - - 10 - - 15.5 1024.2 0.0
02/11:00am SW 7 9 - - - - 10 - - 15.3 1024.7 0.0
02/10:30am SW 5 7 - - - - 10 - - 14.7 1024.8 0.0
02/10:00am W 5 6 - - - - 10 - - 14.2 1025.0 0.0
02/09:30am WNW 5 6 - - - - 10 - - 13.1 1024.9 0.0
02/09:00am WNW 5 6 - - - - 10 - - 12.0 1024.8 0.0
02/08:30am WNW 4 5 - - - - 10 - - 11.1 1024.8 0.0
02/08:00am WNW 2 3 - - - - 10 - - 9.8 1024.6 0.0
02/07:30am WNW 5 6 - - - - 10 - - 8.8 1024.3 0.0
02/07:00am W 6 6 - - - - 10 - - 7.7 1024.2 0.0
02/06:30am W 6 7 - - - - 10 - - 7.8 1023.9 0.0
02/06:00am W 6 7 - - - - 10 - - 7.9 1023.6 0.0
02/05:30am W 6 8 - - - - 10 - - 7.4 1023.2 0.0
02/05:00am W 5 6 - - - - 10 - - 7.0 1022.9 0.0
02/04:30am W 6 6 - - - - 10 - - 7.7 1022.7 0.0
02/04:00am W 6 7 - - - - 10 - - 8.0 1022.7 0.0
02/03:30am W 5 6 - - - - 10 - - 8.3 1022.7 0.0
02/03:00am W 5 5 - - - - 10 - - 6.7 1022.6 0.0
02/02:30am NW 1 5 - - - - 10 - - 5.8 1022.8 0.0
02/02:00am NNW 2 4 - - - - 10 - - 6.0 1022.9 0.0
02/01:30am NNW 1 3 - - - - 10 - - 5.9 1022.9 0.0
02/01:00am CALM 0 2 - - - - 10 - - 6.4 1023.1 0.0
02/12:30am NE 3 4 - - - - 10 - - 6.6 1023.1 0.0
02/12:00am NNW 1 4 - - - - 10 - - 6.2 1023.3 0.0
 
Date/Time
EST
Wind Sea
Height
m
Swell Vis
km
Cloud Weather Temp
°C
Press
hPa
Rain since
9am
mm
Dir  Spd
kts
Gust
kts
Height
m
Period
s
Dir
01/11:30pm NW 3 3 - - - - 10 - - 6.6 1023.4 0.0
01/11:00pm WNW 4 5 - - - - 10 - - 6.8 1023.5 0.0
01/10:30pm WNW 3 4 - - - - 10 - - 7.7 1023.6 0.0
01/10:00pm CALM 0 0 - - - - 10 - - 7.8 1023.5 0.0
01/09:30pm W 2 3 - - - - 10 - - 8.7 1023.5 0.0
01/09:00pm W 5 6 - - - - 10 - - 10.0 1023.4 0.0
01/08:30pm W 6 7 - - - - 10 - - 10.3 1023.5 0.0
01/08:00pm W 7 7 - - - - 10 - - 10.4 1023.6 0.0
01/07:30pm W 6 7 - - - - 10 - - 10.5 1023.5 0.0
01/07:00pm W 5 7 - - - - 10 - - 11.2 1023.5 0.0
01/06:30pm NE 4 5 - - - - 10 - - 12.2 1023.2 0.0
01/06:00pm ENE 5 6 - - - - 10 - - 12.1 1022.9 0.0
01/05:30pm NE 4 6 - - - - 10 - - 13.2 1022.6 0.0
01/05:00pm ENE 5 6 - - - - 10 - - 15.0 1022.5 0.0
01/04:30pm NE 5 5 - - - - 10 - - 15.5 1022.4 0.0
01/04:00pm NE 5 7 - - - - 10 - - 17.0 1022.1 0.0
01/03:30pm ENE 6 8 - - - - 10 - - 17.8 1022.0 0.0
01/03:00pm ENE 5 7 - - - - 10 Mostly clear - 17.5 1022.1 0.0
01/02:30pm ENE 6 7 - - - - 10 - - 17.7 1022.1 0.0
01/02:00pm ENE 5 8 - - - - 10 - - 17.9 1022.4 0.0
01/01:30pm NE 5 7 - - - - 10 - - 17.0 1022.7 0.0
01/01:00pm NW 5 7 - - - - 10 - - 17.2 1023.1 0.0
01/12:30pm WNW 5 8 - - - - 10 - - 17.0 1023.5 0.0
01/12:00pm WNW 6 9 - - - - 10 - - 16.5 1023.9 0.0
01/11:30am NW 6 9 - - - - 10 - - 16.1 1024.2 0.0
01/11:00am NW 6 10 - - - - 10 - - 15.4 1024.5 0.0
01/10:30am NW 7 9 - - - - 10 - - 15.0 1024.8 0.0
01/10:00am NW 8 12 - - - - 10 - - 13.5 1024.9 0.0
01/09:30am NW 8 9 - - - - 10 - - 12.9 1024.9 0.0
01/09:00am N 6 9 - - - - 10 - - 12.0 1025.2 0.0
01/08:30am NNW 8 10 - - - - 10 - - 10.9 1025.1 0.0
01/08:00am NNW 10 14 - - - - 10 - - 9.8 1025.1 0.0
01/07:30am NNW 12 15 - - - - 10 - - 9.0 1024.9 0.0
01/07:00am NW 10 14 - - - - 10 - - 8.5 1024.9 0.0
01/06:30am NNW 9 12 - - - - 10 - - 8.5 1024.7 0.0
01/06:00am NW 7 9 - - - - 10 Mostly clear - 8.2 1024.6 0.0
01/05:30am N 6 8 - - - - 10 - - 8.5 1024.7 0.0
01/05:00am N 7 9 - - - - 10 - - 9.2 1024.7 0.0
01/04:30am NNW 8 11 - - - - 10 - - 9.1 1024.8 0.0

Other formats

Comma delimited format used in spreadsheet applications
http://www.bom.gov.au/fwo/IDN60701/IDN60701.94751.axf

JavaScript Object Notation format (JSON) in row-major order
http://www.bom.gov.au/fwo/IDN60701/IDN60701.94751.json

Data quality

Most of these data are generated automatically and are frequently updated. Quality checks on data are not normally performed. It is possible for incorrect values to appear. Refer to information at About Latest Weather Observations and please check the disclaimer before using these data.